Time;durP1;ratioP1;P1;durP2;ratioP2;P2;SDS_P1;SDS_P2;PMS_P1;PMS_P2;Temp;Humidity;BMP_temperature;BMP_pressure;BME280_temperature;BME280_humidity;BME280_pressure;Samples;Min_cycle;Max_cycle;Signal;HPM_P1;HPM_P2
2022/03/05 00:00:27;;;;;;;14.50;5.80;;;;;;;0.03;64.43;102609.16;4957160;28;20040;-47
2022/03/05 00:02:52;;;;;;;16.08;6.60;;;;;;;-0.01;64.05;102611.22;4963506;28;20408;-49
2022/03/05 00:05:18;;;;;;;11.18;5.43;;;;;;;-0.02;64.34;102616.63;4955919;28;20085;-48
2022/03/05 00:07:44;;;;;;;12.70;6.18;;;;;;;-0.04;64.33;102614.13;4962450;28;20114;-48
2022/03/05 00:10:09;;;;;;;11.98;5.32;;;;;;;-0.04;64.29;102610.66;4959233;28;20122;-48
2022/03/05 00:12:35;;;;;;;10.02;4.70;;;;;;;-0.05;63.77;102616.91;4963027;28;20492;-51
2022/03/05 00:15:01;;;;;;;13.00;5.00;;;;;;;-0.08;64.18;102614.53;4955960;28;20031;-48
2022/03/05 00:17:27;;;;;;;9.73;4.95;;;;;;;-0.13;63.81;102607.03;4964163;28;20152;-48
2022/03/05 00:19:54;;;;;;;10.38;4.35;;;;;;;-0.13;63.69;102600.94;4959102;28;20026;-49
2022/03/05 00:22:20;;;;;;;8.30;4.22;;;;;;;-0.16;64.08;102603.84;4967352;28;20023;-50
2022/03/05 00:24:45;;;;;;;12.75;4.82;;;;;;;-0.18;63.58;102603.09;4966710;28;20027;-49
2022/03/05 00:27:11;;;;;;;10.82;4.60;;;;;;;-0.21;64.04;102604.19;4966413;28;20029;-48
2022/03/05 00:29:37;;;;;;;9.07;4.47;;;;;;;-0.22;63.91;102602.53;4969544;28;20031;-48
2022/03/05 00:32:03;;;;;;;9.43;4.50;;;;;;;-0.25;64.09;102605.44;4964237;28;20229;-48
2022/03/05 00:34:29;;;;;;;16.67;5.60;;;;;;;-0.29;63.50;102605.84;4964375;28;20035;-49
2022/03/05 00:36:55;;;;;;;9.82;4.97;;;;;;;-0.32;64.20;102599.88;4960870;28;20057;-48
2022/03/05 00:39:21;;;;;;;9.40;4.45;;;;;;;-0.35;64.43;102597.50;4967544;28;20551;-49
2022/03/05 00:41:46;;;;;;;11.18;5.30;;;;;;;-0.40;64.15;102607.59;4965340;28;20037;-48
2022/03/05 00:44:12;;;;;;;13.52;5.75;;;;;;;-0.45;64.57;102609.78;4968869;28;20096;-48
2022/03/05 00:46:37;;;;;;;11.40;5.00;;;;;;;-0.57;65.20;102615.25;4968340;28;20353;-48
2022/03/05 00:49:03;;;;;;;9.50;5.13;;;;;;;-0.65;65.15;102619.38;5013634;23;20042;-68
2022/03/05 00:51:28;;;;;;;9.93;5.13;;;;;;;-0.69;65.57;102610.06;4961249;28;20366;-68
2022/03/05 00:53:54;;;;;;;12.65;5.78;;;;;;;-0.72;65.46;102617.34;4962955;28;20054;-68
2022/03/05 00:56:19;;;;;;;11.77;5.43;;;;;;;-0.80;66.08;102614.53;4957985;28;20031;-68
2022/03/05 00:58:45;;;;;;;11.88;5.88;;;;;;;-0.84;65.61;102618.41;4958451;28;20154;-68
2022/03/05 01:01:10;;;;;;;7.82;5.55;;;;;;;-0.84;66.08;102615.78;4954632;28;20130;-68
2022/03/05 01:03:36;;;;;;;11.57;4.93;;;;;;;-0.88;66.36;102624.88;4954605;28;20030;-68
2022/03/05 01:06:01;;;;;;;11.35;5.38;;;;;;;-0.86;66.08;102620.34;4956264;28;20027;-68
2022/03/05 01:08:27;;;;;;;8.40;4.70;;;;;;;-0.83;66.03;102623.53;4955298;28;20054;-68
2022/03/05 01:10:52;;;;;;;10.48;5.25;;;;;;;-0.79;65.53;102626.75;4954005;28;20058;-68
2022/03/05 01:13:18;;;;;;;10.50;4.80;;;;;;;-0.78;65.32;102609.97;4953685;28;20126;-68
2022/03/05 01:15:44;;;;;;;10.73;5.22;;;;;;;-0.78;65.44;102616.09;4954702;28;20525;-68
2022/03/05 01:18:09;;;;;;;9.52;4.80;;;;;;;-0.77;65.38;102611.66;4959427;28;20502;-68
2022/03/05 01:20:35;;;;;;;9.15;4.30;;;;;;;-0.78;65.27;102609.97;4953691;28;20426;-69
2022/03/05 01:23:01;;;;;;;8.57;4.68;;;;;;;-0.79;65.08;102608.31;4955118;28;20697;-68
2022/03/05 01:25:26;;;;;;;8.52;4.60;;;;;;;-0.79;64.73;102624.94;4951366;28;20047;-68
2022/03/05 01:27:52;;;;;;;8.93;4.93;;;;;;;-0.79;64.91;102617.03;4960383;28;20023;-69
2022/03/05 01:30:17;;;;;;;11.30;5.13;;;;;;;-0.79;64.73;102613.59;4961028;28;20401;-68
2022/03/05 01:32:43;;;;;;;10.38;5.05;;;;;;;-0.82;64.89;102609.41;4958509;28;20037;-68
2022/03/05 01:35:09;;;;;;;11.27;4.68;;;;;;;-0.84;64.84;102608.72;4961058;28;20094;-68
2022/03/05 01:37:35;;;;;;;9.98;4.30;;;;;;;-0.84;65.24;102616.59;4963764;28;20037;-68
2022/03/05 01:40:00;;;;;;;9.57;4.38;;;;;;;-0.85;64.92;102608.84;4958587;28;20404;-68
2022/03/05 01:42:26;;;;;;;7.97;4.15;;;;;;;-0.86;65.08;102618.53;4953717;28;20400;-68
2022/03/05 01:44:52;;;;;;;12.20;5.00;;;;;;;-0.87;64.98;102618.66;4964142;28;20477;-68
2022/03/05 01:47:19;;;;;;;12.73;4.00;;;;;;;-0.88;64.79;102620.47;4960236;28;20054;-68
2022/03/05 01:49:45;;;;;;;9.48;4.60;;;;;;;-0.88;64.43;102623.09;4958107;28;20110;-69
2022/03/05 01:52:11;;;;;;;11.55;4.13;;;;;;;-0.89;65.06;102618.78;4955537;28;20104;-68
2022/03/05 01:54:37;;;;;;;13.15;4.68;;;;;;;-0.92;64.82;102622.47;4959036;28;20528;-69
2022/03/05 01:57:03;;;;;;;10.32;5.07;;;;;;;-0.95;64.71;102614.84;4963139;28;20042;-69
2022/03/05 01:59:29;;;;;;;10.90;5.05;;;;;;;-0.93;64.64;102615.56;4959588;28;20027;-68
2022/03/05 02:01:54;;;;;;;11.18;5.50;;;;;;;-0.93;64.66;102615.56;4958634;28;20026;-68
2022/03/05 02:04:20;;;;;;;11.90;4.90;;;;;;;-0.93;64.62;102610.28;4955179;28;20030;-69
2022/03/05 02:06:46;;;;;;;11.02;4.93;;;;;;;-0.94;64.70;102608.63;4964982;28;20023;-69
2022/03/05 02:09:11;;;;;;;12.55;5.35;;;;;;;-0.94;64.94;102616.53;4963153;28;20035;-68
2022/03/05 02:11:37;;;;;;;12.75;5.63;;;;;;;-0.97;64.80;102608.88;4959850;28;20177;-68
2022/03/05 02:14:03;;;;;;;10.93;5.18;;;;;;;-0.98;65.09;102616.91;4953914;28;20034;-68
2022/03/05 02:16:29;;;;;;;13.00;6.22;;;;;;;-1.01;65.18;102611.91;4958649;28;20038;-69
2022/03/05 02:18:55;;;;;;;16.45;6.75;;;;;;;-1.08;65.86;102606.28;4956428;28;20027;-69
2022/03/05 02:21:23;;;;;;;10.55;5.82;;;;;;;-1.14;66.76;102601.53;4956925;28;20049;-69
2022/03/05 02:23:48;;;;;;;15.38;7.03;;;;;;;-1.16;66.42;102605.25;4953386;28;20480;-69
2022/03/05 02:26:14;;;;;;;13.70;7.63;;;;;;;-1.19;66.99;102608.16;4956700;28;20046;-69
2022/03/05 02:28:40;;;;;;;11.80;5.97;;;;;;;-1.20;67.15;102604.69;4956516;28;20392;-69
2022/03/05 02:31:06;;;;;;;14.70;6.45;;;;;;;-1.18;66.87;102602.75;4960539;28;20179;-69
2022/03/05 02:33:32;;;;;;;13.45;6.82;;;;;;;-1.14;67.02;102598.91;4957883;28;20031;-69
2022/03/05 02:35:57;;;;;;;13.68;5.88;;;;;;;-1.11;66.59;102603.91;4963308;28;20143;-69
2022/03/05 02:38:24;;;;;;;12.40;6.00;;;;;;;-1.08;66.76;102601.03;4961467;28;20465;-69
2022/03/05 02:40:50;;;;;;;15.85;6.45;;;;;;;-1.06;66.46;102598.31;4953934;28;20066;-68
2022/03/05 02:43:16;;;;;;;12.63;6.43;;;;;;;-1.03;66.59;102596.25;4956913;28;20137;-69
2022/03/05 02:45:42;;;;;;;14.48;6.32;;;;;;;-1.05;67.43;102592.06;4953495;28;20027;-69
2022/03/05 02:48:12;;;;;;;18.50;6.90;;;;;;;-1.06;67.53;102604.41;4956646;28;20035;-69
2022/03/05 02:50:37;;;;;;;13.73;6.20;;;;;;;-1.04;67.02;102596.38;4955380;28;20031;-69
2022/03/05 02:53:04;;;;;;;13.77;5.82;;;;;;;-1.01;67.19;102598.75;4959188;28;20035;-69
2022/03/05 02:55:30;;;;;;;17.65;6.63;;;;;;;-0.98;66.95;102601.13;4955720;28;20042;-69
2022/03/05 02:57:56;;;;;;;10.02;5.60;;;;;;;-0.95;67.29;102599.06;4957818;28;20031;-69
2022/03/05 03:00:21;;;;;;;13.57;7.22;;;;;;;-0.94;67.52;102595.47;4959839;28;20477;-69
2022/03/05 03:02:47;;;;;;;16.52;7.05;;;;;;;-0.91;67.59;102605.72;4956187;28;20050;-67
2022/03/05 03:05:14;;;;;;;13.10;5.82;;;;;;;-0.88;66.92;102595.94;4957906;28;20070;-66
2022/03/05 03:07:40;;;;;;;11.95;5.85;;;;;;;-0.85;67.11;102600.94;4961492;28;20023;-66
2022/03/05 03:10:07;;;;;;;11.80;6.07;;;;;;;-0.82;67.07;102605.94;4955062;28;20299;-66
2022/03/05 03:12:33;;;;;;;10.95;6.25;;;;;;;-0.79;66.96;102605.69;4956750;28;20030;-66
2022/03/05 03:14:58;;;;;;;11.43;5.68;;;;;;;-0.77;66.97;102601.97;4961484;28;20037;-66
2022/03/05 03:17:24;;;;;;;11.95;5.88;;;;;;;-0.74;67.29;102608.75;4961593;28;20042;-66
2022/03/05 03:19:50;;;;;;;9.73;5.88;;;;;;;-0.72;66.86;102604.19;4956537;28;20042;-66
2022/03/05 03:22:16;;;;;;;15.00;6.97;;;;;;;-0.70;67.18;102607.56;4963159;28;20015;-66
2022/03/05 03:24:42;;;;;;;14.75;7.05;;;;;;;-0.70;67.50;102603.13;4959397;28;20475;-66
2022/03/05 03:27:08;;;;;;;12.88;6.43;;;;;;;-0.70;67.43;102597.88;4958553;28;20520;-66
2022/03/05 03:29:34;;;;;;;15.10;6.95;;;;;;;-0.68;68.00;102605.63;4957602;28;20090;-66
2022/03/05 03:32:00;;;;;;;15.55;7.18;;;;;;;-0.68;67.51;102601.19;4959571;28;20039;-66
2022/03/05 03:34:25;;;;;;;25.08;12.70;;;;;;;-0.65;67.72;102611.47;4958142;28;20026;-66
2022/03/05 03:36:51;;;;;;;29.17;16.50;;;;;;;-0.64;68.29;102607.03;4960976;28;20546;-66
2022/03/05 03:39:17;;;;;;;37.47;20.30;;;;;;;-0.61;67.54;102612.88;4954313;28;20023;-66
2022/03/05 03:41:43;;;;;;;39.30;22.13;;;;;;;-0.60;68.13;102608.44;4954088;28;20026;-66
2022/03/05 03:44:09;;;;;;;38.42;19.50;;;;;;;-0.59;67.89;102607.47;4951332;28;20472;-66
2022/03/05 03:46:34;;;;;;;30.55;17.27;;;;;;;-0.61;68.43;102601.50;4955218;28;20073;-66
2022/03/05 03:49:00;;;;;;;24.55;12.65;;;;;;;-0.63;69.07;102609.53;4952473;28;20038;-66
2022/03/05 03:51:26;;;;;;;33.50;15.23;;;;;;;-0.61;69.15;102612.03;4959380;28;20023;-66
2022/03/05 03:53:51;;;;;;;35.58;16.88;;;;;;;-0.58;69.31;102611.78;4952478;28;20037;-66
2022/03/05 03:56:17;;;;;;;39.40;18.83;;;;;;;-0.57;69.36;102618.72;4960692;28;20077;-66
2022/03/05 03:58:43;;;;;;;33.38;15.65;;;;;;;-0.54;69.24;102613.19;4956451;28;20082;-66
2022/03/05 04:01:08;;;;;;;32.30;14.48;;;;;;;-0.51;68.89;102623.47;4962257;28;20047;-66
2022/03/05 04:03:34;;;;;;;27.23;12.35;;;;;;;-0.50;69.58;102622.50;4962367;28;20026;-66
2022/03/05 04:06:00;;;;;;;31.88;13.30;;;;;;;-0.47;69.65;102624.88;4963227;28;20038;-66
2022/03/05 04:08:43;;;;;;;25.77;13.27;;;;;;;-0.44;69.39;102626.41;4963168;28;20222;-67
2022/03/05 04:11:09;;;;;;;20.52;11.68;;;;;;;-0.43;69.69;102618.38;4963447;28;20085;-66
2022/03/05 04:13:35;;;;;;;19.73;9.57;;;;;;;-0.41;70.15;102626.97;4961069;28;20118;-66
2022/03/05 04:16:00;;;;;;;23.55;10.05;;;;;;;-0.39;70.24;102630.31;4959210;28;20412;-66
2022/03/05 04:18:26;;;;;;;14.23;8.23;;;;;;;-0.38;70.23;102634.63;4962667;28;20512;-67
2022/03/05 04:20:51;;;;;;;15.93;8.32;;;;;;;-0.37;69.80;102630.19;4964615;28;20030;-66
2022/03/05 04:23:16;;;;;;;13.32;6.38;;;;;;;-0.36;70.68;102632.72;4958563;28;20030;-66
2022/03/05 04:25:42;;;;;;;13.40;6.53;;;;;;;-0.35;70.63;102631.75;4963441;28;20023;-66
2022/03/05 04:28:08;;;;;;;13.32;7.05;;;;;;;-0.33;70.75;102631.63;4962433;28;20050;-67
2022/03/05 04:30:34;;;;;;;14.40;6.63;;;;;;;-0.31;70.30;102637.59;4960227;28;20102;-66
2022/03/05 04:33:00;;;;;;;12.68;6.55;;;;;;;-0.30;70.59;102636.63;4957802;28;21468;-67
2022/03/05 04:35:25;;;;;;;11.27;6.18;;;;;;;-0.29;70.82;102634.81;4968365;28;20051;-67
2022/03/05 04:37:51;;;;;;;12.15;5.72;;;;;;;-0.28;70.20;102633.84;4959919;28;20381;-67
2022/03/05 04:40:17;;;;;;;14.27;6.50;;;;;;;-0.27;70.69;102638.97;4960554;28;20023;-69
2022/03/05 04:42:43;;;;;;;10.98;5.30;;;;;;;-0.26;70.47;102637.19;4958768;28;20030;-69
2022/03/05 04:45:09;;;;;;;10.50;5.53;;;;;;;-0.25;70.54;102641.47;4959299;28;20474;-69
2022/03/05 04:47:35;;;;;;;12.85;6.00;;;;;;;-0.24;71.00;102640.53;4958268;28;20026;-69
2022/03/05 04:50:01;;;;;;;14.70;5.75;;;;;;;-0.24;70.86;102636.09;4954535;28;20035;-69
2022/03/05 04:52:27;;;;;;;11.23;5.15;;;;;;;-0.22;70.98;102647.31;4957781;28;20023;-69
2022/03/05 04:54:52;;;;;;;12.77;5.65;;;;;;;-0.21;71.54;102640.25;4953024;28;20050;-69
2022/03/05 04:57:19;;;;;;;9.07;4.93;;;;;;;-0.20;71.77;102639.28;4954078;28;20128;-69
2022/03/05 04:59:44;;;;;;;9.95;5.35;;;;;;;-0.20;71.16;102639.28;4956523;28;20153;-69
2022/03/05 05:02:10;;;;;;;11.48;5.90;;;;;;;-0.19;71.54;102644.41;4962578;28;20101;-69
2022/03/05 05:04:35;;;;;;;11.85;5.20;;;;;;;-0.18;71.38;102639.97;4957778;28;20031;-69
2022/03/05 05:07:01;;;;;;;11.63;5.15;;;;;;;-0.16;71.40;102638.09;4955628;28;20439;-69
2022/03/05 05:09:27;;;;;;;8.30;4.07;;;;;;;-0.14;71.39;102636.97;4957140;28;20081;-69
2022/03/05 05:11:52;;;;;;;11.13;5.30;;;;;;;-0.10;71.51;102642.81;4957086;28;20035;-69
2022/03/05 05:14:18;;;;;;;9.90;4.63;;;;;;;-0.10;71.37;102643.66;4958307;28;20035;-69
2022/03/05 05:16:44;;;;;;;7.68;4.40;;;;;;;-0.10;71.74;102646.28;4959911;28;20027;-69
2022/03/05 05:19:24;;;;;;;8.45;4.20;;;;;;;-0.09;71.40;102650.59;4959324;28;20027;-69
2022/03/05 05:21:50;;;;;;;11.23;4.75;;;;;;;-0.08;71.38;102649.63;4958680;28;20143;-69
2022/03/05 05:24:16;;;;;;;11.38;4.40;;;;;;;-0.06;71.26;102654.75;4958290;28;20076;-69
2022/03/05 05:26:41;;;;;;;7.85;4.75;;;;;;;-0.07;71.14;102653.91;4958905;28;20035;-69
2022/03/05 05:29:07;;;;;;;11.65;4.70;;;;;;;-0.03;71.26;102649.22;4955583;28;20235;-69
2022/03/05 05:31:32;;;;;;;11.40;4.07;;;;;;;-0.04;71.27;102645.75;4957657;28;20062;-68
2022/03/05 05:33:58;;;;;;;10.30;4.55;;;;;;;-0.02;71.38;102650.88;4959148;28;20035;-69
2022/03/05 05:36:24;;;;;;;10.43;4.20;;;;;;;-0.01;71.47;102649.91;4957941;28;20043;-68
2022/03/05 05:38:49;;;;;;;10.95;4.32;;;;;;;0.00;71.23;102651.63;4958092;28;20030;-69
2022/03/05 05:41:16;;;;;;;8.07;4.57;;;;;;;0.02;70.98;102652.31;4958254;28;20038;-68
2022/03/05 05:43:41;;;;;;;10.60;4.43;;;;;;;0.03;71.08;102653.97;4956657;28;20027;-68
2022/03/05 05:46:07;;;;;;;11.52;4.43;;;;;;;0.03;71.21;102661.88;4957178;28;20369;-68
2022/03/05 05:48:32;;;;;;;7.25;3.83;;;;;;;0.04;71.07;102666.19;4957440;28;20393;-68
2022/03/05 05:50:58;;;;;;;8.55;4.25;;;;;;;0.05;71.30;102667.03;4957824;28;20038;-68
2022/03/05 05:53:25;;;;;;;7.35;4.18;;;;;;;0.05;71.54;102667.84;4957581;28;20496;-68
2022/03/05 05:55:53;;;;;;;11.68;4.15;;;;;;;0.05;71.24;102670.50;4956381;28;20039;-68
2022/03/05 05:58:19;;;;;;;10.13;3.80;;;;;;;0.05;71.54;102659.13;4957328;28;20031;-68
2022/03/05 06:00:44;;;;;;;8.82;3.80;;;;;;;0.07;71.84;102676.47;4943989;28;20196;-68
2022/03/05 06:03:10;;;;;;;12.80;4.53;;;;;;;0.07;71.54;102673.81;4958615;28;20500;-68
2022/03/05 06:05:35;;;;;;;5.57;3.08;;;;;;;0.08;72.01;102675.50;4952630;28;20121;-68
2022/03/05 06:08:01;;;;;;;5.68;3.70;;;;;;;0.08;71.68;102672.03;4959594;28;20461;-68
2022/03/05 06:10:27;;;;;;;9.25;4.60;;;;;;;0.08;71.54;102675.50;4955398;28;20027;-68
2022/03/05 06:12:52;;;;;;;9.13;4.53;;;;;;;0.08;71.90;102678.13;4960023;28;20883;-68
2022/03/05 06:15:18;;;;;;;9.63;4.22;;;;;;;0.10;71.38;102678.81;4954806;28;20182;-68
2022/03/05 06:17:44;;;;;;;10.68;4.20;;;;;;;0.11;71.41;102677.03;4954642;28;20114;-68
2022/03/05 06:20:11;;;;;;;10.05;3.88;;;;;;;0.12;71.65;102687.44;4956284;28;20480;-68
2022/03/05 06:22:37;;;;;;;5.93;3.65;;;;;;;0.14;71.48;102682.03;4953721;28;20477;-68
2022/03/05 06:25:04;;;;;;;9.23;4.00;;;;;;;0.18;71.18;102679.00;4957613;28;20027;-68
2022/03/05 06:27:30;;;;;;;7.70;3.67;;;;;;;0.18;71.54;102679.00;4954700;28;20432;-68
2022/03/05 06:29:56;;;;;;;8.57;4.93;;;;;;;0.21;71.06;102689.28;4962408;28;20038;-68
2022/03/05 06:32:21;;;;;;;11.30;3.95;;;;;;;0.24;70.88;102688.19;4954625;28;20035;-68
2022/03/05 06:34:47;;;;;;;9.10;3.92;;;;;;;0.27;70.85;102683.47;4957315;28;20042;-68
2022/03/05 06:37:13;;;;;;;8.52;4.28;;;;;;;0.31;70.75;102691.94;4953837;28;20046;-68
2022/03/05 06:39:39;;;;;;;6.82;3.78;;;;;;;0.34;70.69;102696.13;4958249;28;20026;-68
2022/03/05 06:42:05;;;;;;;6.95;3.60;;;;;;;0.37;70.85;102698.50;4959648;28;20138;-68
2022/03/05 06:44:31;;;;;;;7.60;4.28;;;;;;;0.40;70.54;102698.25;4962725;28;20023;-69
2022/03/05 06:46:58;;;;;;;7.05;3.35;;;;;;;0.42;70.55;102704.22;4957443;28;20038;-68
2022/03/05 06:49:23;;;;;;;8.48;4.15;;;;;;;0.44;70.51;102699.63;4955329;28;20022;-69
2022/03/05 06:51:49;;;;;;;7.18;4.20;;;;;;;0.46;70.64;102702.97;4955938;28;20023;-69
2022/03/05 06:54:15;;;;;;;9.93;3.88;;;;;;;0.47;70.74;102708.09;4959721;28;20031;-69
2022/03/05 06:56:41;;;;;;;10.10;4.95;;;;;;;0.49;70.68;102706.16;4956988;28;20023;-69
2022/03/05 06:59:06;;;;;;;9.10;4.63;;;;;;;0.51;70.56;102708.66;4956991;28;20093;-69
2022/03/05 07:01:32;;;;;;;8.38;3.63;;;;;;;0.53;70.28;102710.19;4957588;28;20042;-69
2022/03/05 07:03:57;;;;;;;11.77;4.40;;;;;;;0.58;70.69;102709.81;4954350;28;20065;-69
2022/03/05 07:06:23;;;;;;;9.80;4.07;;;;;;;0.63;70.50;102712.03;4959031;28;20504;-69
2022/03/05 07:08:48;;;;;;;13.10;3.97;;;;;;;0.65;70.36;102713.56;4954958;28;20507;-69
2022/03/05 07:11:14;;;;;;;7.97;4.00;;;;;;;0.69;70.21;102714.13;4959459;28;20031;-69
2022/03/05 07:13:40;;;;;;;6.78;3.88;;;;;;;0.72;70.25;102714.72;4954443;28;20111;-69
2022/03/05 07:16:06;;;;;;;6.78;4.10;;;;;;;0.76;70.18;102710.84;4960487;28;20022;-69
2022/03/05 07:18:31;;;;;;;9.82;5.20;;;;;;;0.80;70.31;102716.66;4951594;28;20058;-69
2022/03/05 07:20:57;;;;;;;9.45;4.82;;;;;;;0.81;70.38;102719.16;4963617;28;20386;-69
2022/03/05 07:23:24;;;;;;;11.88;4.85;;;;;;;0.83;69.96;102719.88;4988211;28;20031;-69
2022/03/05 07:25:50;;;;;;;8.27;4.70;;;;;;;0.85;70.27;102711.81;4957947;28;20518;-69
2022/03/05 07:28:15;;;;;;;8.80;4.95;;;;;;;0.86;70.28;102716.94;4959410;28;20042;-69
2022/03/05 07:30:42;;;;;;;10.25;6.85;;;;;;;0.89;70.50;102721.13;4956738;28;20039;-69
2022/03/05 07:33:08;;;;;;;10.02;7.63;;;;;;;0.90;70.10;102722.81;4957669;28;20041;-69
2022/03/05 07:35:33;;;;;;;10.77;7.68;;;;;;;0.94;70.29;102723.38;4961521;28;20676;-69
2022/03/05 07:37:59;;;;;;;11.48;6.15;;;;;;;0.97;70.26;102723.09;4955690;28;20059;-69
2022/03/05 07:40:25;;;;;;;13.18;5.88;;;;;;;0.97;70.62;102723.94;4953798;28;20045;-69
2022/03/05 07:42:50;;;;;;;11.30;6.00;;;;;;;1.01;70.53;102722.69;4953124;28;20027;-70
2022/03/05 07:45:16;;;;;;;13.10;5.80;;;;;;;1.10;70.36;102724.50;4985302;28;20035;-70
2022/03/05 07:47:42;;;;;;;13.93;6.07;;;;;;;1.21;70.57;102715.59;4959258;28;20118;-70
2022/03/05 07:50:08;;;;;;;13.05;6.65;;;;;;;1.35;70.47;102717.00;4951482;28;20409;-70
2022/03/05 07:52:34;;;;;;;13.55;7.25;;;;;;;1.44;70.49;102714.38;4958233;28;20027;-70
2022/03/05 07:54:59;;;;;;;10.40;5.95;;;;;;;1.49;70.17;102719.22;4958047;28;20046;-70
2022/03/05 07:57:25;;;;;;;7.60;5.20;;;;;;;1.50;70.03;102716.44;4953758;28;20027;-70
2022/03/05 07:59:50;;;;;;;11.40;5.22;;;;;;;1.51;70.41;102720.75;4957223;28;20137;-70
2022/03/05 08:02:16;;;;;;;11.40;4.55;;;;;;;1.51;70.23;102720.75;4958031;28;20035;-70
2022/03/05 08:04:44;;;;;;;8.02;4.57;;;;;;;1.63;70.33;102723.25;4952969;28;20046;-70
2022/03/05 08:07:10;;;;;;;8.85;4.50;;;;;;;1.75;70.07;102724.75;4955621;28;20061;-70
2022/03/05 08:09:36;;;;;;;9.75;4.25;;;;;;;1.89;69.82;102723.47;4959819;28;20062;-70
2022/03/05 08:12:05;;;;;;;7.03;4.03;;;;;;;2.04;69.71;102725.53;4954447;28;20114;-70
2022/03/05 08:14:31;;;;;;;8.73;4.45;;;;;;;2.21;69.60;102728.41;4954063;28;20033;-71
2022/03/05 08:16:56;;;;;;;7.80;3.53;;;;;;;2.36;69.43;102719.00;4954541;28;20114;-70
2022/03/05 08:19:22;;;;;;;7.93;4.25;;;;;;;2.49;69.11;102716.84;4952285;28;20114;-71
2022/03/05 08:21:47;;;;;;;8.63;3.20;;;;;;;2.61;68.71;102722.78;4955528;28;20023;-71
2022/03/05 08:24:13;;;;;;;5.95;2.97;;;;;;;2.72;68.52;102731.38;4957034;28;20405;-71
2022/03/05 08:26:39;;;;;;;7.55;2.70;;;;;;;2.80;68.13;102727.97;4954225;28;20039;-71
2022/03/05 08:29:04;;;;;;;6.78;2.78;;;;;;;2.87;67.85;102733.50;4963556;28;20039;-71
2022/03/05 08:31:33;;;;;;;8.10;3.05;;;;;;;2.94;67.52;102726.63;4958986;28;20042;-71
2022/03/05 08:34:01;;;;;;;9.93;3.10;;;;;;;3.06;66.82;102716.66;4957868;28;20046;-71
2022/03/05 08:36:27;;;;;;;8.90;3.15;;;;;;;3.15;66.73;102723.69;4952818;28;20035;-71
2022/03/05 08:38:53;;;;;;;8.57;3.35;;;;;;;3.25;66.58;102722.66;4955829;28;20122;-71
2022/03/05 08:41:19;;;;;;;5.90;2.72;;;;;;;3.36;65.87;102718.91;4957806;28;20031;-71
2022/03/05 08:43:44;;;;;;;5.07;2.63;;;;;;;3.46;65.57;102719.69;4961401;28;20023;-71
2022/03/05 08:46:10;;;;;;;3.38;2.05;;;;;;;3.58;65.49;102723.75;4958315;28;20106;-71
2022/03/05 08:48:35;;;;;;;4.15;2.08;;;;;;;3.62;64.85;102717.16;4959675;28;20031;-71
2022/03/05 08:51:01;;;;;;;6.95;2.33;;;;;;;3.73;64.71;102726.69;4961342;28;20129;-71
2022/03/05 08:53:27;;;;;;;2.75;1.67;;;;;;;3.89;64.24;102726.78;4957253;28;20038;-71
2022/03/05 08:55:53;;;;;;;3.28;1.50;;;;;;;4.02;63.68;102721.09;4956425;28;20493;-71
2022/03/05 08:58:18;;;;;;;6.28;1.48;;;;;;;4.13;63.12;102727.94;4957908;28;20034;-72
2022/03/05 09:00:44;;;;;;;4.00;1.23;;;;;;;4.19;62.71;102727.31;4963174;28;20027;-72
2022/03/05 09:03:10;;;;;;;3.97;1.30;;;;;;;4.27;62.31;102718.56;4959675;28;20027;-71
2022/03/05 09:05:36;;;;;;;2.70;1.20;;;;;;;4.33;61.98;102723.25;4958663;28;20452;-70
2022/03/05 09:08:02;;;;;;;3.53;1.38;;;;;;;4.41;61.77;102716.13;4952815;28;20114;-71
2022/03/05 09:10:27;;;;;;;4.65;1.30;;;;;;;4.51;61.54;102719.50;4956079;28;20106;-70
2022/03/05 09:12:53;;;;;;;3.60;1.50;;;;;;;4.61;61.07;102713.22;4960344;28;20925;-70
2022/03/05 09:15:18;;;;;;;2.83;1.23;;;;;;;4.69;60.62;102706.13;4962652;28;20031;-71
2022/03/05 09:17:44;;;;;;;3.75;1.67;;;;;;;4.79;60.17;102711.28;4953520;28;20038;-70
2022/03/05 09:20:11;;;;;;;4.38;1.20;;;;;;;4.84;59.47;102708.97;4956345;28;20034;-71
2022/03/05 09:22:36;;;;;;;3.58;1.00;;;;;;;4.94;59.55;102703.53;4959582;28;20477;-71
2022/03/05 09:25:03;;;;;;;3.33;0.90;;;;;;;5.06;59.36;102703.06;4959841;28;20027;-71
2022/03/05 09:27:29;;;;;;;2.42;1.20;;;;;;;5.23;58.98;102693.28;4958099;28;20030;-71
2022/03/05 09:29:54;;;;;;;4.82;1.40;;;;;;;5.32;58.55;102702.91;4963003;28;20509;-71
2022/03/05 09:32:20;;;;;;;4.13;1.02;;;;;;;5.36;57.79;102701.56;4957255;28;20022;-71
2022/03/05 09:34:46;;;;;;;1.80;1.02;;;;;;;5.41;57.37;102693.97;4959427;28;20035;-71
2022/03/05 09:37:12;;;;;;;1.92;1.27;;;;;;;5.48;57.15;102696.78;4959445;28;20069;-70
2022/03/05 09:39:37;;;;;;;5.18;1.73;;;;;;;5.48;56.58;102704.75;4960019;28;20027;-71
2022/03/05 09:42:05;;;;;;;3.83;1.20;;;;;;;5.56;56.55;102701.25;4960587;28;20440;-71
2022/03/05 09:44:31;;;;;;;3.58;1.30;;;;;;;5.61;56.50;102704.25;4959780;28;20095;-71
2022/03/05 09:46:57;;;;;;;2.80;1.08;;;;;;;5.68;56.03;102705.22;4958853;28;20489;-71
2022/03/05 09:49:27;;;;;;;2.50;1.10;;;;;;;5.74;55.67;102697.44;4958967;28;20026;-71
2022/03/05 09:51:53;;;;;;;2.13;0.95;;;;;;;5.83;55.34;102697.41;4958042;28;20035;-71
2022/03/05 09:54:19;;;;;;;2.00;0.98;;;;;;;5.87;55.11;102691.56;4957115;28;20062;-71
2022/03/05 09:56:45;;;;;;;2.90;0.93;;;;;;;5.94;54.83;102683.78;4956248;28;20030;-71
2022/03/05 09:59:11;;;;;;;4.20;1.10;;;;;;;6.03;54.68;102685.41;4954920;28;20045;-70
2022/03/05 10:01:37;;;;;;;2.78;1.10;;;;;;;6.16;54.29;102687.53;4952441;28;20887;-70
2022/03/05 10:04:03;;;;;;;4.80;1.20;;;;;;;6.28;53.97;102687.00;4953790;28;20034;-69
2022/03/05 10:06:29;;;;;;;3.72;1.27;;;;;;;6.42;53.71;102690.75;4954168;28;20023;-69
2022/03/05 10:08:56;;;;;;;2.72;1.23;;;;;;;6.56;53.83;102687.38;4952635;28;20145;-70
2022/03/05 10:11:37;;;;;;;1.17;0.85;;;;;;;6.61;52.78;102681.50;4954177;28;20037;-69
2022/03/05 10:14:16;;;;;;;3.63;1.20;;;;;;;6.57;52.59;102685.53;4952722;28;20033;-69
2022/03/05 10:16:42;;;;;;;2.67;1.20;;;;;;;6.68;53.17;102682.50;4952956;28;20954;-69
2022/03/05 10:19:18;;;;;;;3.05;1.45;;;;;;;6.72;51.89;102689.13;4955760;28;20578;-70
2022/03/05 10:21:58;;;;;;;2.22;1.10;;;;;;;6.69;50.91;102684.16;4956814;28;20386;-69
2022/03/05 10:24:34;;;;;;;3.63;0.93;;;;;;;6.73;51.48;102695.28;4955707;28;20089;-69
2022/03/05 10:27:01;;;;;;;3.17;1.10;;;;;;;6.80;52.24;102688.22;4954180;28;20118;-69
2022/03/05 10:29:34;;;;;;;5.50;1.00;;;;;;;6.85;51.27;102678.72;4957630;28;20093;-69
2022/03/05 10:32:05;;;;;;;2.92;1.27;;;;;;;6.97;51.46;102677.28;4955085;28;20030;-69
2022/03/05 10:34:50;;;;;;;5.18;1.50;;;;;;;7.12;50.73;102690.69;4953426;28;20077;-69
2022/03/05 10:37:17;;;;;;;1.70;1.02;;;;;;;7.35;51.13;102682.66;4953813;28;20039;-69
2022/03/05 10:39:43;;;;;;;1.80;0.73;;;;;;;7.49;50.60;102681.88;4951393;28;20042;-69
2022/03/05 10:42:27;;;;;;;3.58;1.10;;;;;;;7.49;49.29;102681.88;4954911;28;20035;-69
2022/03/05 10:45:06;;;;;;;2.63;1.08;;;;;;;7.50;49.42;102674.72;4955669;28;20041;-69
2022/03/05 10:48:04;;;;;;;2.17;0.80;;;;;;;7.35;48.55;102680.00;4951513;28;20039;-69
2022/03/05 10:50:31;;;;;;;2.45;1.25;;;;;;;7.37;49.72;102671.84;4943466;28;20057;-69
2022/03/05 10:53:01;;;;;;;2.30;1.00;;;;;;;7.27;49.27;102672.91;4952932;28;20030;-69
2022/03/05 10:55:37;;;;;;;2.22;1.67;;;;;;;7.00;47.82;102675.28;4956109;28;20072;-69
2022/03/05 10:58:17;;;;;;;4.22;1.30;;;;;;;7.02;49.27;102673.28;4954406;28;20046;-69
2022/03/05 11:00:45;;;;;;;5.63;1.30;;;;;;;7.08;49.54;102673.41;4953270;28;20104;-68
2022/03/05 11:03:11;;;;;;;2.90;1.65;;;;;;;7.27;49.19;102666.75;4955073;28;20592;-69
2022/03/05 11:05:38;;;;;;;4.50;1.63;;;;;;;7.48;49.07;102668.72;4954276;28;20062;-68
2022/03/05 11:08:05;;;;;;;5.57;3.33;;;;;;;7.60;48.43;102661.13;4955665;28;20534;-69
2022/03/05 11:10:31;;;;;;;2.70;1.80;;;;;;;7.70;47.99;102664.34;4955814;28;20030;-69
2022/03/05 11:12:59;;;;;;;3.50;1.70;;;;;;;7.69;47.51;102663.53;4957340;28;20078;-69
2022/03/05 11:15:29;;;;;;;3.78;1.70;;;;;;;7.64;47.52;102657.91;4948729;28;20030;-69
2022/03/05 11:17:55;;;;;;;1.48;1.10;;;;;;;7.53;47.41;102655.69;4955996;28;20129;-70
2022/03/05 11:20:21;;;;;;;3.33;1.83;;;;;;;7.38;47.09;102657.50;4955180;28;20030;-69